Time;durP1;ratioP1;P1;durP2;ratioP2;P2;SDS_P1;SDS_P2;PMS_P1;PMS_P2;Temp;Humidity;BMP_temperature;BMP_pressure;BME280_temperature;BME280_humidity;BME280_pressure;Samples;Min_cycle;Max_cycle;Signal;HPM_P1;HPM_P2
2023/12/25 00:00:51;;;;;;;;;;;12.70;99.90;;;;;;5028356;28;19935;-80
2023/12/25 00:03:17;;;;;;;;;;;12.70;99.90;;;;;;5010483;28;20498;-81
2023/12/25 00:05:45;;;;;;;;;;;12.70;99.90;;;;;;5011897;28;19917;-81
2023/12/25 00:08:13;;;;;;;;;;;12.70;99.90;;;;;;5031240;28;20562;-81
2023/12/25 00:10:38;;;;;;;;;;;12.70;99.90;;;;;;5016013;28;19921;-81
2023/12/25 00:13:04;;;;;;;;;;;12.60;99.90;;;;;;5012880;28;19932;-81
2023/12/25 00:15:29;;;;;;;;;;;12.60;99.90;;;;;;5029513;28;19917;-81
2023/12/25 00:17:55;;;;;;;;;;;12.70;99.90;;;;;;5031995;28;20700;-81
2023/12/25 00:20:20;;;;;;;;;;;12.70;99.90;;;;;;5031917;28;19931;-80
2023/12/25 00:22:46;;;;;;;;;;;12.60;99.90;;;;;;5032094;28;20305;-81
2023/12/25 00:25:11;;;;;;;;;;;12.70;99.90;;;;;;5031961;28;19966;-80
2023/12/25 00:27:37;;;;;;;;;;;12.60;99.90;;;;;;5013041;28;21350;-80
2023/12/25 00:30:05;;;;;;;;;;;12.60;99.90;;;;;;5032143;28;19999;-80
2023/12/25 00:32:30;;;;;;;;;;;12.60;99.90;;;;;;5033625;28;19936;-80
2023/12/25 00:34:56;;;;;;;;;;;12.60;99.90;;;;;;5016268;28;19987;-81
2023/12/25 00:37:21;;;;;;;;;;;12.60;99.90;;;;;;5035692;28;20390;-80
2023/12/25 00:39:47;;;;;;;;;;;12.60;99.90;;;;;;5035770;28;20082;-80
2023/12/25 00:42:12;;;;;;;;;;;12.60;99.90;;;;;;5035645;28;20253;-80
2023/12/25 00:44:41;;;;;;;;;;;12.70;99.90;;;;;;5015456;28;20319;-80
2023/12/25 00:47:06;;;;;;;;;;;12.70;99.90;;;;;;5055249;22;19985;-80
2023/12/25 00:49:31;;;;;;;;;;;12.70;99.90;;;;;;5061587;28;19928;-80
2023/12/25 00:51:57;;;;;;;;;;;12.70;99.90;;;;;;5052456;28;19932;-80
2023/12/25 00:54:22;;;;;;;;;;;12.70;99.90;;;;;;5052658;28;20112;-80
2023/12/25 00:56:48;;;;;;;;;;;12.60;99.90;;;;;;5036524;28;20422;-81
2023/12/25 00:59:13;;;;;;;;;;;12.60;99.90;;;;;;5036448;28;19917;-80
2023/12/25 01:01:39;;;;;;;;;;;12.60;99.90;;;;;;5034342;28;19920;-81
2023/12/25 01:04:04;;;;;;;;;;;12.60;99.90;;;;;;5036438;28;19920;-80
2023/12/25 01:06:32;;;;;;;;;;;12.60;99.90;;;;;;5050515;28;19947;-81
2023/12/25 01:08:59;;;;;;;;;;;12.50;99.90;;;;;;5037512;28;19917;-81
2023/12/25 01:11:27;;;;;;;;;;;12.50;99.90;;;;;;5034484;28;19931;-81
2023/12/25 01:13:55;;;;;;;;;;;12.50;99.90;;;;;;5050663;28;19920;-80
2023/12/25 01:16:21;;;;;;;;;;;12.40;99.90;;;;;;5033606;28;19920;-81
2023/12/25 01:18:47;;;;;;;;;;;12.40;99.90;;;;;;5038866;28;19973;-80
2023/12/25 01:21:14;;;;;;;;;;;12.40;99.90;;;;;;5034847;28;20059;-81
2023/12/25 01:23:40;;;;;;;;;;;12.40;99.90;;;;;;5035221;28;20018;-81
2023/12/25 01:26:07;;;;;;;;;;;12.40;99.90;;;;;;5049450;28;20421;-81
2023/12/25 01:28:33;;;;;;;;;;;12.50;99.90;;;;;;5036700;28;20067;-80
2023/12/25 01:31:01;;;;;;;;;;;12.40;99.90;;;;;;5048559;28;19920;-81
2023/12/25 01:33:26;;;;;;;;;;;12.40;99.90;;;;;;5036383;28;19921;-81
2023/12/25 01:35:52;;;;;;;;;;;12.40;99.90;;;;;;5035994;28;19920;-80
2023/12/25 01:38:17;;;;;;;;;;;12.50;99.90;;;;;;5034761;28;19950;-80
2023/12/25 01:40:43;;;;;;;;;;;12.50;99.90;;;;;;5036737;28;19917;-81
2023/12/25 01:43:09;;;;;;;;;;;12.50;99.90;;;;;;5034225;28;20587;-81
2023/12/25 01:45:37;;;;;;;;;;;12.50;99.90;;;;;;5037373;28;19928;-81
2023/12/25 01:48:03;;;;;;;;;;;12.50;99.90;;;;;;5050011;28;19916;-81
2023/12/25 01:50:31;;;;;;;;;;;12.50;99.90;;;;;;5035284;28;20663;-81
2023/12/25 01:52:56;;;;;;;;;;;12.50;99.90;;;;;;5034211;28;20159;-80
2023/12/25 01:55:22;;;;;;;;;;;12.50;99.90;;;;;;5035299;28;19955;-80
2023/12/25 01:57:47;;;;;;;;;;;12.50;99.90;;;;;;5035708;28;19950;-81
2023/12/25 02:00:13;;;;;;;;;;;12.50;99.90;;;;;;5037324;28;19916;-81
2023/12/25 02:02:42;;;;;;;;;;;12.50;99.90;;;;;;5033439;28;19920;-81
2023/12/25 02:05:08;;;;;;;;;;;12.50;99.90;;;;;;5035536;28;19921;-81
2023/12/25 02:07:35;;;;;;;;;;;12.50;99.90;;;;;;5034595;28;19924;-81
2023/12/25 02:10:00;;;;;;;;;;;12.50;99.90;;;;;;5037757;28;20003;-81
2023/12/25 02:12:25;;;;;;;;;;;12.60;99.90;;;;;;5032102;28;19927;-81
2023/12/25 02:14:51;;;;;;;;;;;12.50;99.90;;;;;;5036004;28;19916;-81
2023/12/25 02:17:19;;;;;;;;;;;12.60;99.90;;;;;;5033497;28;19920;-80
2023/12/25 02:19:45;;;;;;;;;;;12.50;99.90;;;;;;5035276;28;19971;-80
2023/12/25 02:22:11;;;;;;;;;;;12.60;99.90;;;;;;5033857;28;19986;-80
2023/12/25 02:24:38;;;;;;;;;;;12.70;99.90;;;;;;5037686;28;19916;-80
2023/12/25 02:27:04;;;;;;;;;;;12.60;99.90;;;;;;5033967;28;19964;-81
2023/12/25 02:29:30;;;;;;;;;;;12.60;99.90;;;;;;5034043;28;20367;-81
2023/12/25 02:31:55;;;;;;;;;;;12.60;99.90;;;;;;5029712;28;19943;-81
2023/12/25 02:34:21;;;;;;;;;;;12.60;99.90;;;;;;5037160;28;20326;-81
2023/12/25 02:36:46;;;;;;;;;;;12.60;99.90;;;;;;5035227;28;20246;-80
2023/12/25 02:39:12;;;;;;;;;;;12.60;99.90;;;;;;5030805;28;19921;-81
2023/12/25 02:41:37;;;;;;;;;;;12.60;99.90;;;;;;5032376;28;19920;-81
2023/12/25 02:44:03;;;;;;;;;;;12.60;99.90;;;;;;5035307;28;19931;-80
2023/12/25 02:46:28;;;;;;;;;;;12.60;99.90;;;;;;5032261;28;19975;-81
2023/12/25 02:48:56;;;;;;;;;;;12.60;99.90;;;;;;5034898;28;20457;-81
2023/12/25 02:51:22;;;;;;;;;;;12.60;99.90;;;;;;5026883;28;19920;-81
2023/12/25 02:53:47;;;;;;;;;;;12.60;99.90;;;;;;5034920;28;20358;-80
2023/12/25 02:56:12;;;;;;;;;;;12.60;99.90;;;;;;5026734;28;20823;-81
2023/12/25 02:58:40;;;;;;;;;;;12.60;99.90;;;;;;5038366;28;20070;-81
2023/12/25 03:01:06;;;;;;;;;;;12.60;99.90;;;;;;5033210;28;20004;-81
2023/12/25 03:03:31;;;;;;;;;;;12.60;99.90;;;;;;5032053;28;19927;-81
2023/12/25 03:05:57;;;;;;;;;;;12.60;99.90;;;;;;5039150;28;20047;-81
2023/12/25 03:08:25;;;;;;;;;;;12.60;99.90;;;;;;5032852;28;20393;-81
2023/12/25 03:10:50;;;;;;;;;;;12.50;99.90;;;;;;5035987;28;19968;-81
2023/12/25 03:13:16;;;;;;;;;;;12.50;99.90;;;;;;5031247;28;19916;-80
2023/12/25 03:15:41;;;;;;;;;;;12.60;99.90;;;;;;5034812;28;20298;-80
2023/12/25 03:18:07;;;;;;;;;;;12.60;99.90;;;;;;5046991;28;19924;-81
2023/12/25 03:20:32;;;;;;;;;;;12.60;99.90;;;;;;5034942;28;20614;-81
2023/12/25 03:23:00;;;;;;;;;;;12.50;99.90;;;;;;5033945;28;20311;-81
2023/12/25 03:25:26;;;;;;;;;;;12.60;99.90;;;;;;5034162;28;19917;-80
2023/12/25 03:27:51;;;;;;;;;;;12.50;99.90;;;;;;5046546;28;20236;-80
2023/12/25 03:30:17;;;;;;;;;;;12.50;99.90;;;;;;5037406;28;19951;-80
2023/12/25 03:32:42;;;;;;;;;;;12.50;99.90;;;;;;5031756;28;19920;-81
2023/12/25 03:35:08;;;;;;;;;;;12.50;99.90;;;;;;5035048;28;20582;-80
2023/12/25 03:37:33;;;;;;;;;;;12.50;99.90;;;;;;5032326;28;19920;-81
2023/12/25 03:39:59;;;;;;;;;;;12.50;99.90;;;;;;5029026;28;19920;-80
2023/12/25 03:42:24;;;;;;;;;;;12.50;99.90;;;;;;5033459;28;20379;-80
2023/12/25 03:44:50;;;;;;;;;;;12.50;99.90;;;;;;5033015;28;20431;-81
2023/12/25 03:47:15;;;;;;;;;;;12.50;99.90;;;;;;5032699;28;19967;-81
2023/12/25 03:49:43;;;;;;;;;;;12.50;99.90;;;;;;5043867;28;20391;-80
2023/12/25 03:52:09;;;;;;;;;;;12.50;99.90;;;;;;5030132;28;19921;-81
2023/12/25 03:54:37;;;;;;;;;;;12.50;99.90;;;;;;5032835;28;19920;-81
2023/12/25 03:57:02;;;;;;;;;;;12.50;99.90;;;;;;5030553;28;20195;-81
2023/12/25 03:59:28;;;;;;;;;;;12.50;99.90;;;;;;5035944;28;20519;-80
2023/12/25 04:01:53;;;;;;;;;;;12.50;99.90;;;;;;5027641;28;20762;-81
2023/12/25 04:04:19;;;;;;;;;;;12.50;99.90;;;;;;5038416;28;20263;-81
2023/12/25 04:06:44;;;;;;;;;;;12.50;99.90;;;;;;5036581;28;19924;-81
2023/12/25 04:09:12;;;;;;;;;;;12.50;99.90;;;;;;5039255;28;20783;-81
2023/12/25 04:11:38;;;;;;;;;;;12.40;99.90;;;;;;5051187;28;19920;-81
2023/12/25 04:14:05;;;;;;;;;;;12.40;99.90;;;;;;5037022;28;20015;-81
2023/12/25 04:16:33;;;;;;;;;;;12.40;99.90;;;;;;5052049;28;19921;-81
2023/12/25 04:18:59;;;;;;;;;;;12.40;99.90;;;;;;5032136;28;19927;-81
2023/12/25 04:21:25;;;;;;;;;;;12.40;99.90;;;;;;5040419;28;19917;-80
2023/12/25 04:23:51;;;;;;;;;;;12.40;99.90;;;;;;5049383;28;19916;-81
2023/12/25 04:26:17;;;;;;;;;;;12.30;99.90;;;;;;5035146;28;19921;-80
2023/12/25 04:28:43;;;;;;;;;;;12.30;99.90;;;;;;5036904;28;19927;-81
2023/12/25 04:31:11;;;;;;;;;;;12.30;99.90;;;;;;5034705;28;19916;-81
2023/12/25 04:33:37;;;;;;;;;;;12.30;99.90;;;;;;5037496;28;20356;-81
2023/12/25 04:36:03;;;;;;;;;;;12.30;99.90;;;;;;5032212;28;19920;-81
2023/12/25 04:38:31;;;;;;;;;;;12.30;99.90;;;;;;5036716;28;19922;-81
2023/12/25 04:40:59;;;;;;;;;;;12.30;99.90;;;;;;5036038;28;19920;-81
2023/12/25 04:43:24;;;;;;;;;;;12.20;99.90;;;;;;5052149;28;19921;-81
2023/12/25 04:45:50;;;;;;;;;;;12.30;99.90;;;;;;5037450;28;20740;-81
2023/12/25 04:48:18;;;;;;;;;;;12.20;99.90;;;;;;5043541;28;19921;-81
2023/12/25 04:50:48;;;;;;;;;;;12.20;99.90;;;;;;5038818;28;19929;-81
2023/12/25 04:53:14;;;;;;;;;;;12.30;99.90;;;;;;5036233;28;19920;-81
2023/12/25 04:55:40;;;;;;;;;;;12.20;99.90;;;;;;5051406;28;20496;-81
2023/12/25 04:58:05;;;;;;;;;;;12.20;99.90;;;;;;5039567;28;20004;-81
2023/12/25 05:00:31;;;;;;;;;;;12.20;99.90;;;;;;5038019;28;20244;-81
2023/12/25 05:02:57;;;;;;;;;;;12.20;99.90;;;;;;5037012;28;20367;-81
2023/12/25 05:05:22;;;;;;;;;;;12.20;99.90;;;;;;5040763;28;19920;-81
2023/12/25 05:07:48;;;;;;;;;;;12.20;99.90;;;;;;5036171;28;20185;-80
2023/12/25 05:10:13;;;;;;;;;;;12.20;99.90;;;;;;5036550;28;19943;-81
2023/12/25 05:12:39;;;;;;;;;;;12.20;99.90;;;;;;5034590;28;19927;-82
2023/12/25 05:15:07;;;;;;;;;;;12.40;99.90;;;;;;5036586;28;20037;-81
2023/12/25 05:17:32;;;;;;;;;;;12.20;99.90;;;;;;5035819;28;19924;-81
2023/12/25 05:20:00;;;;;;;;;;;12.30;99.90;;;;;;5037585;28;19952;-81
2023/12/25 05:22:26;;;;;;;;;;;12.20;99.90;;;;;;5048660;28;20235;-80
2023/12/25 05:24:51;;;;;;;;;;;12.20;99.90;;;;;;5038535;28;19928;-81
2023/12/25 05:27:17;;;;;;;;;;;12.10;99.90;;;;;;5034449;28;19924;-80
2023/12/25 05:29:42;;;;;;;;;;;12.10;99.90;;;;;;5051572;28;19920;-81
2023/12/25 05:32:08;;;;;;;;;;;12.10;99.90;;;;;;5034795;28;20369;-82
2023/12/25 05:34:33;;;;;;;;;;;12.10;99.90;;;;;;5036294;28;20047;-80
2023/12/25 05:36:59;;;;;;;;;;;12.00;99.90;;;;;;5039319;28;19921;-81
2023/12/25 05:39:26;;;;;;;;;;;12.00;99.90;;;;;;5035160;28;20013;-81
2023/12/25 05:41:53;;;;;;;;;;;12.00;99.90;;;;;;5035825;28;19920;-81
2023/12/25 05:44:19;;;;;;;;;;;12.00;99.90;;;;;;5050932;28;20159;-82
2023/12/25 05:46:44;;;;;;;;;;;11.90;99.90;;;;;;5033890;28;20662;-82
2023/12/25 05:49:10;;;;;;;;;;;11.90;99.90;;;;;;5031761;28;19963;-81
2023/12/25 05:51:35;;;;;;;;;;;11.90;99.90;;;;;;5036256;28;19927;-81
2023/12/25 05:54:01;;;;;;;;;;;11.80;99.90;;;;;;5051515;28;19970;-81
2023/12/25 05:56:27;;;;;;;;;;;11.70;99.90;;;;;;5049798;28;19921;-81
2023/12/25 05:58:52;;;;;;;;;;;11.70;99.90;;;;;;5034883;28;22065;-81
2023/12/25 06:01:18;;;;;;;;;;;11.70;99.90;;;;;;5035476;28;20061;-81
2023/12/25 06:03:44;;;;;;;;;;;11.70;99.90;;;;;;5041089;28;19913;-80
2023/12/25 06:06:10;;;;;;;;;;;11.70;99.90;;;;;;5033645;28;19928;-81
2023/12/25 06:08:35;;;;;;;;;;;11.70;99.90;;;;;;5035979;28;19946;-81
2023/12/25 06:11:01;;;;;;;;;;;11.60;99.90;;;;;;5034192;28;20000;-81
2023/12/25 06:13:26;;;;;;;;;;;11.60;99.90;;;;;;5035367;28;19927;-81
2023/12/25 06:15:52;;;;;;;;;;;11.60;99.90;;;;;;5034314;28;21884;-81
2023/12/25 06:18:18;;;;;;;;;;;11.60;99.90;;;;;;5037235;28;19963;-81
2023/12/25 06:20:43;;;;;;;;;;;11.50;99.90;;;;;;5036264;28;19924;-81
2023/12/25 06:23:09;;;;;;;;;;;11.50;99.90;;;;;;5033753;28;19920;-81
2023/12/25 06:25:37;;;;;;;;;;;11.60;99.90;;;;;;5036816;28;20437;-81
2023/12/25 06:28:02;;;;;;;;;;;11.60;99.90;;;;;;5035511;28;19948;-81
2023/12/25 06:30:28;;;;;;;;;;;11.50;99.90;;;;;;5033800;28;19918;-81
2023/12/25 06:32:56;;;;;;;;;;;11.50;99.90;;;;;;5027092;28;19920;-81
2023/12/25 06:35:22;;;;;;;;;;;11.50;99.90;;;;;;5037452;28;20667;-81
2023/12/25 06:37:47;;;;;;;;;;;11.50;99.90;;;;;;5034086;28;19932;-81
2023/12/25 06:40:13;;;;;;;;;;;11.50;99.90;;;;;;5036987;28;19974;-81
2023/12/25 06:42:38;;;;;;;;;;;11.50;99.90;;;;;;5034671;28;20379;-80
2023/12/25 06:45:05;;;;;;;;;;;11.50;99.90;;;;;;5034046;28;20007;-81
2023/12/25 06:47:30;;;;;;;;;;;11.50;99.90;;;;;;5065820;22;19931;-80
2023/12/25 06:49:56;;;;;;;;;;;11.50;99.90;;;;;;5054712;28;19913;-80
2023/12/25 06:52:21;;;;;;;;;;;11.50;99.90;;;;;;5059076;28;19916;-80
2023/12/25 06:54:47;;;;;;;;;;;11.40;99.90;;;;;;5055050;28;20421;-81
2023/12/25 06:57:14;;;;;;;;;;;11.40;99.90;;;;;;5055492;28;19917;-82
2023/12/25 06:59:39;;;;;;;;;;;11.40;99.90;;;;;;5062119;28;19919;-81
2023/12/25 07:02:07;;;;;;;;;;;11.40;99.90;;;;;;5060366;28;19912;-80
2023/12/25 07:04:33;;;;;;;;;;;11.50;99.90;;;;;;5042733;28;20539;-81
2023/12/25 07:06:59;;;;;;;;;;;11.50;99.90;;;;;;5038714;28;20199;-81
2023/12/25 07:09:24;;;;;;;;;;;11.50;99.90;;;;;;5040365;28;19920;-81
2023/12/25 07:11:51;;;;;;;;;;;11.40;99.90;;;;;;5037251;28;19928;-80
2023/12/25 07:14:19;;;;;;;;;;;11.40;99.90;;;;;;5033412;28;19958;-81
2023/12/25 07:16:44;;;;;;;;;;;11.40;99.90;;;;;;5038996;28;20378;-82
2023/12/25 07:19:12;;;;;;;;;;;11.40;99.90;;;;;;5038567;28;20033;-81
2023/12/25 07:21:38;;;;;;;;;;;11.50;99.90;;;;;;5037875;28;19966;-82
2023/12/25 07:24:05;;;;;;;;;;;11.50;99.90;;;;;;5037580;28;20336;-81
2023/12/25 07:26:30;;;;;;;;;;;11.50;99.90;;;;;;5039260;28;19920;-82
2023/12/25 07:28:56;;;;;;;;;;;11.50;99.90;;;;;;5040007;28;20374;-81
2023/12/25 07:31:21;;;;;;;;;;;11.40;99.90;;;;;;5039832;28;19927;-82
2023/12/25 07:33:51;;;;;;;;;;;11.30;99.90;;;;;;5039121;28;19927;-82
2023/12/25 07:36:19;;;;;;;;;;;11.30;99.90;;;;;;5047590;28;19978;-81
2023/12/25 07:38:45;;;;;;;;;;;11.30;99.90;;;;;;5053158;28;20013;-81
2023/12/25 07:41:11;;;;;;;;;;;11.30;99.90;;;;;;5043854;28;20036;-82
2023/12/25 07:43:36;;;;;;;;;;;11.30;99.90;;;;;;5058123;28;20019;-81
2023/12/25 07:46:05;;;;;;;;;;;11.30;99.90;;;;;;5045735;28;19920;-82
2023/12/25 07:48:36;;;;;;;;;;;11.20;99.90;;;;;;5048405;28;20128;-82
2023/12/25 07:51:02;;;;;;;;;;;11.20;99.90;;;;;;5045492;28;19926;-80
2023/12/25 07:53:28;;;;;;;;;;;11.20;99.90;;;;;;5043612;28;19921;-81
2023/12/25 07:55:53;;;;;;;;;;;11.30;99.90;;;;;;5039768;28;19920;-81
2023/12/25 07:58:19;;;;;;;;;;;11.20;99.90;;;;;;5050673;28;20023;-81
2023/12/25 08:00:44;;;;;;;;;;;11.20;99.90;;;;;;5044511;28;22163;-81
2023/12/25 08:03:12;;;;;;;;;;;11.20;99.90;;;;;;5042353;28;19927;-80
2023/12/25 08:05:38;;;;;;;;;;;11.40;99.90;;;;;;5046047;28;19985;-79
2023/12/25 08:08:09;;;;;;;;;;;11.30;99.90;;;;;;5049283;28;19924;-79
2023/12/25 08:10:35;;;;;;;;;;;11.20;99.90;;;;;;5049233;28;19927;-80
2023/12/25 08:13:02;;;;;;;;;;;11.20;99.90;;;;;;5042058;28;19920;-80
2023/12/25 08:15:28;;;;;;;;;;;11.40;99.90;;;;;;5047071;28;20009;-80
2023/12/25 08:17:56;;;;;;;;;;;11.20;99.90;;;;;;5046981;28;19916;-80
2023/12/25 08:20:21;;;;;;;;;;;11.30;99.90;;;;;;5059600;28;19920;-80
2023/12/25 08:22:49;;;;;;;;;;;11.20;99.90;;;;;;5039585;28;19928;-79
2023/12/25 08:25:15;;;;;;;;;;;11.20;99.90;;;;;;5044630;28;20391;-80
2023/12/25 08:27:40;;;;;;;;;;;11.20;99.90;;;;;;5035001;28;20126;-80
2023/12/25 08:30:06;;;;;;;;;;;11.20;99.90;;;;;;5039327;28;19958;-80
2023/12/25 08:32:32;;;;;;;;;;;11.20;99.90;;;;;;5049515;28;19920;-80
2023/12/25 08:34:57;;;;;;;;;;;11.10;99.90;;;;;;5051031;28;20346;-80
2023/12/25 08:37:23;;;;;;;;;;;11.20;99.90;;;;;;5045997;28;19920;-80
2023/12/25 08:39:51;;;;;;;;;;;11.20;99.90;;;;;;5047022;28;19920;-78
2023/12/25 08:42:19;;;;;;;;;;;11.20;99.90;;;;;;5050686;28;19924;-79
2023/12/25 08:44:44;;;;;;;;;;;11.20;99.90;;;;;;5048298;28;19912;-80
2023/12/25 08:47:09;;;;;;;;;;;11.20;99.90;;;;;;5048394;28;20453;-80
2023/12/25 08:49:35;;;;;;;;;;;11.20;99.90;;;;;;5049420;28;19916;-80
2023/12/25 08:52:01;;;;;;;;;;;11.20;99.90;;;;;;5052772;28;19986;-79
2023/12/25 08:54:27;;;;;;;;;;;11.20;99.90;;;;;;5050917;28;20082;-79
2023/12/25 08:56:52;;;;;;;;;;;11.20;99.90;;;;;;5052495;28;19939;-80
2023/12/25 08:59:18;;;;;;;;;;;11.20;99.90;;;;;;5051551;28;23302;-80
2023/12/25 09:01:46;;;;;;;;;;;11.20;99.90;;;;;;5055318;28;19927;-80
2023/12/25 09:04:12;;;;;;;;;;;11.30;99.90;;;;;;5054794;28;19928;-79
2023/12/25 09:06:38;;;;;;;;;;;11.20;99.90;;;;;;5053942;28;19921;-81
2023/12/25 09:09:04;;;;;;;;;;;11.30;99.90;;;;;;5049247;28;19920;-80
2023/12/25 09:11:32;;;;;;;;;;;11.30;99.90;;;;;;5049685;28;19916;-78
2023/12/25 09:13:57;;;;;;;;;;;11.30;99.90;;;;;;5052798;28;20010;-80
2023/12/25 09:16:23;;;;;;;;;;;11.30;99.90;;;;;;5061578;28;20367;-80
2023/12/25 09:18:48;;;;;;;;;;;11.30;99.90;;;;;;5072267;28;19919;-80
2023/12/25 09:21:17;;;;;;;;;;;11.30;99.90;;;;;;5066467;28;20451;-80
2023/12/25 09:23:42;;;;;;;;;;;11.30;99.90;;;;;;5071566;28;20370;-82
2023/12/25 09:26:08;;;;;;;;;;;11.40;99.90;;;;;;5060231;28;20017;-81
2023/12/25 09:28:33;;;;;;;;;;;11.30;99.90;;;;;;5066849;28;19913;-81
2023/12/25 09:30:59;;;;;;;;;;;11.40;99.90;;;;;;5066137;28;19913;-80
2023/12/25 09:33:25;;;;;;;;;;;11.40;99.90;;;;;;5062854;28;19917;-83
2023/12/25 09:35:53;;;;;;;;;;;11.40;99.90;;;;;;5063730;28;19923;-80
2023/12/25 09:38:21;;;;;;;;;;;11.40;99.90;;;;;;5068216;28;19912;-82
2023/12/25 09:40:47;;;;;;;;;;;11.40;99.90;;;;;;5063250;28;19917;-80
2023/12/25 09:43:13;;;;;;;;;;;11.40;99.90;;;;;;5065421;28;19918;-80
2023/12/25 09:45:38;;;;;;;;;;;11.40;99.90;;;;;;5069809;28;19985;-81
2023/12/25 09:48:07;;;;;;;;;;;11.40;99.90;;;;;;5064769;28;20102;-84
2023/12/25 09:50:35;;;;;;;;;;;11.40;99.90;;;;;;5071572;28;20046;-79
2023/12/25 09:53:00;;;;;;;;;;;11.40;99.90;;;;;;5062950;28;19921;-79
2023/12/25 09:55:28;;;;;;;;;;;11.50;99.90;;;;;;5068941;28;19934;-79
2023/12/25 09:57:54;;;;;;;;;;;11.50;99.90;;;;;;5064156;28;19912;-80
2023/12/25 10:00:20;;;;;;;;;;;11.50;99.90;;;;;;5069580;28;19995;-80
2023/12/25 10:02:49;;;;;;;;;;;11.50;99.90;;;;;;5067007;28;19921;-80
2023/12/25 10:05:15;;;;;;;;;;;11.50;99.90;;;;;;5054235;28;23256;-80
2023/12/25 10:07:43;;;;;;;;;;;11.50;99.90;;;;;;5052142;28;19928;-81
2023/12/25 10:10:09;;;;;;;;;;;11.60;99.90;;;;;;5049375;28;20379;-81
2023/12/25 10:12:34;;;;;;;;;;;11.70;99.90;;;;;;5054877;28;19920;-82
2023/12/25 10:14:59;;;;;;;;;;;11.60;99.90;;;;;;5053635;28;19946;-81
2023/12/25 10:17:25;;;;;;;;;;;11.70;99.90;;;;;;5054808;28;20393;-80
2023/12/25 10:19:54;;;;;;;;;;;11.70;99.90;;;;;;5053049;28;19989;-79
2023/12/25 10:22:29;;;;;;;;;;;11.70;99.90;;;;;;5067756;28;19920;-79
2023/12/25 10:24:55;;;;;;;;;;;11.70;99.90;;;;;;5052896;28;19968;-81
2023/12/25 10:27:22;;;;;;;;;;;11.70;99.90;;;;;;5051200;28;19920;-80
2023/12/25 10:29:47;;;;;;;;;;;11.80;99.90;;;;;;5052927;28;19916;-80
2023/12/25 10:32:17;;;;;;;;;;;11.80;99.90;;;;;;5051778;28;19923;-80
2023/12/25 10:34:43;;;;;;;;;;;11.80;99.90;;;;;;5052955;28;19913;-80
2023/12/25 10:37:11;;;;;;;;;;;11.80;99.90;;;;;;5052046;28;19924;-79
2023/12/25 10:39:37;;;;;;;;;;;11.80;99.90;;;;;;5051631;28;20402;-79
2023/12/25 10:42:02;;;;;;;;;;;11.80;99.90;;;;;;5053828;28;19972;-81
2023/12/25 10:44:28;;;;;;;;;;;11.90;99.90;;;;;;5064082;28;22093;-78
2023/12/25 10:46:57;;;;;;;;;;;11.90;99.90;;;;;;5049365;28;20061;-80
2023/12/25 10:49:23;;;;;;;;;;;11.90;99.90;;;;;;5066424;28;19916;-80
2023/12/25 10:51:49;;;;;;;;;;;11.90;99.90;;;;;;5052957;28;19921;-79
2023/12/25 10:54:20;;;;;;;;;;;12.00;99.90;;;;;;5051135;28;19920;-78
2023/12/25 10:56:46;;;;;;;;;;;12.10;99.90;;;;;;5053448;28;19920;-79
2023/12/25 10:59:12;;;;;;;;;;;12.00;99.90;;;;;;5048845;28;19976;-78
2023/12/25 11:01:39;;;;;;;;;;;12.10;99.90;;;;;;5051827;28;19920;-78
2023/12/25 11:04:05;;;;;;;;;;;12.10;99.90;;;;;;5051691;28;19916;-79
2023/12/25 11:06:31;;;;;;;;;;;12.10;99.90;;;;;;5052063;28;20637;-80
2023/12/25 11:08:57;;;;;;;;;;;12.10;99.90;;;;;;5053342;28;19921;-78
2023/12/25 11:11:23;;;;;;;7.47;1.10;;;12.10;99.90;;;;;;5043539;28;19924;-69
2023/12/25 11:13:49;;;;;;;7.25;1.08;;;12.10;99.90;;;;;;5038842;28;20047;-70
2023/12/25 11:16:15;;;;;;;7.80;1.10;;;12.20;99.90;;;;;;5039852;28;20032;-69
2023/12/25 11:18:40;;;;;;;6.45;1.05;;;12.30;99.90;;;;;;5034742;28;20036;-69
2023/12/25 11:21:08;;;;;;;5.28;1.23;;;12.30;99.90;;;;;;5030854;28;20025;-69
2023/12/25 11:23:45;;;;;;;6.60;1.23;;;12.40;99.90;;;;;;5035923;28;20031;-69
2023/12/25 11:26:16;;;;;;;2.95;0.75;;;12.40;99.90;;;;;;5036223;28;20123;-70
2023/12/25 11:28:42;;;;;;;5.78;1.00;;;12.70;99.90;;;;;;5037329;28;20062;-70
2023/12/25 11:31:12;;;;;;;5.15;0.80;;;12.70;99.90;;;;;;5039515;28;20231;-69
2023/12/25 11:34:20;;;;;;;6.28;1.25;;;12.80;99.90;;;;;;5037037;28;20047;-69
2023/12/25 11:36:47;;;;;;;4.18;1.00;;;12.80;99.90;;;;;;5034250;28;20030;-69
2023/12/25 11:39:13;;;;;;;11.68;1.52;;;12.90;99.90;;;;;;5032396;28;20032;-69
2023/12/25 11:41:40;;;;;;;4.55;0.90;;;12.90;99.90;;;;;;5033011;28;20281;-69
2023/12/25 11:44:07;;;;;;;3.88;1.00;;;12.80;99.90;;;;;;5031022;28;22207;-69
2023/12/25 11:46:43;;;;;;;5.30;1.00;;;12.80;99.90;;;;;;5036695;28;20043;-69
2023/12/25 11:49:09;;;;;;;6.47;1.27;;;12.80;99.90;;;;;;5039327;28;20052;-69
2023/12/25 11:51:49;;;;;;;4.80;1.00;;;12.90;99.90;;;;;;5038712;28;20021;-69
2023/12/25 11:54:14;;;;;;;3.97;1.02;;;12.90;99.90;;;;;;5040184;28;20025;-69
2023/12/25 11:56:40;;;;;;;5.50;1.20;;;12.90;99.90;;;;;;5039055;28;22274;-69
2023/12/25 11:59:05;;;;;;;5.80;0.70;;;13.00;99.90;;;;;;5036868;28;20025;-70
2023/12/25 12:01:33;;;;;;;4.25;0.82;;;12.90;99.90;;;;;;5032421;28;20082;-69
2023/12/25 12:03:59;;;;;;;;;;;12.90;99.90;;;;;;5040230;28;20025;-69
2023/12/25 12:06:30;;;;;;;7.05;1.20;;;12.80;99.90;;;;;;5032928;28;19916;-69
2023/12/25 12:08:58;;;;;;;4.82;1.20;;;12.70;99.90;;;;;;5032457;28;21856;-69
2023/12/25 12:11:24;;;;;;;8.48;1.00;;;12.60;99.90;;;;;;5032851;28;20390;-70
2023/12/25 12:13:50;;;;;;;8.43;0.98;;;12.60;99.90;;;;;;5039561;28;20091;-70
2023/12/25 12:16:18;;;;;;;4.22;0.88;;;12.60;99.90;;;;;;5037265;28;20024;-70
2023/12/25 12:18:44;;;;;;;4.82;1.10;;;12.50;99.90;;;;;;5039689;28;20147;-70
2023/12/25 12:21:09;;;;;;;4.38;0.95;;;12.40;99.90;;;;;;5038744;28;20032;-70
2023/12/25 12:23:35;;;;;;;4.93;0.98;;;12.40;99.90;;;;;;5040875;28;20468;-70
2023/12/25 12:26:00;;;;;;;9.88;1.00;;;12.40;99.90;;;;;;5045647;28;20654;-70
2023/12/25 12:28:29;;;;;;;4.88;0.90;;;12.30;99.90;;;;;;5047000;28;20036;-70
2023/12/25 12:30:56;;;;;;;6.75;0.90;;;12.30;99.90;;;;;;5043939;28;20657;-70
2023/12/25 12:33:22;;;;;;;6.68;1.23;;;12.30;99.90;;;;;;5046128;28;20116;-70
2023/12/25 12:35:53;;;;;;;3.88;1.20;;;12.30;99.90;;;;;;5043516;28;20039;-70
2023/12/25 12:38:22;;;;;;;2.70;0.70;;;12.20;99.90;;;;;;5047529;28;20047;-70
2023/12/25 12:40:49;;;;;;;6.32;1.00;;;12.20;99.90;;;;;;5044516;28;20037;-71
2023/12/25 12:43:18;;;;;;;3.55;0.88;;;12.20;99.90;;;;;;5045881;28;20125;-72
2023/12/25 12:45:48;;;;;;;7.60;1.35;;;12.20;99.90;;;;;;5044038;28;20040;-70
2023/12/25 12:48:17;;;;;;;7.90;1.73;;;12.20;99.90;;;;;;5067663;22;20696;-70
2023/12/25 12:50:43;;;;;;;11.00;1.52;;;12.20;99.90;;;;;;5064246;28;20638;-70
2023/12/25 12:53:10;;;;;;;8.73;1.50;;;12.20;99.90;;;;;;5063744;28;20024;-70
2023/12/25 12:55:36;;;;;;;10.13;1.88;;;12.20;99.90;;;;;;5062647;28;20692;-70
2023/12/25 12:58:03;;;;;;;10.85;1.30;;;12.20;99.90;;;;;;5065457;28;20032;-70
2023/12/25 13:00:31;;;;;;;7.43;1.20;;;12.20;99.90;;;;;;5064473;28;20089;-70
2023/12/25 13:02:58;;;;;;;4.72;1.17;;;12.20;99.90;;;;;;5067539;28;20040;-71
2023/12/25 13:05:25;;;;;;;10.35;2.13;;;12.20;99.90;;;;;;5063443;28;20135;-71
2023/12/25 13:07:53;;;;;;;5.25;1.02;;;12.20;99.90;;;;;;5064338;28;20028;-70
2023/12/25 13:10:21;;;;;;;4.93;1.13;;;12.30;99.90;;;;;;5066292;28;20052;-71
2023/12/25 13:12:47;;;;;;;;;;;12.20;99.90;;;;;;5066939;28;20031;-70
2023/12/25 13:15:17;;;;;;;5.63;1.20;;;12.30;99.90;;;;;;5063288;28;20155;-70
2023/12/25 13:17:45;;;;;;;5.68;1.05;;;12.20;99.90;;;;;;5065710;28;20036;-70
2023/12/25 13:20:13;;;;;;;5.57;1.27;;;12.30;99.90;;;;;;5065026;28;20120;-70
2023/12/25 13:22:39;;;;;;;;;;;12.70;99.90;;;;;;5066384;28;20140;-70
2023/12/25 13:25:05;;;;;;;7.00;1.23;;;12.90;99.90;;;;;;5063123;28;19934;-71
2023/12/25 13:27:31;;;;;;;7.75;1.30;;;12.90;99.90;;;;;;5065231;28;20079;-70
2023/12/25 13:29:57;;;;;;;7.63;1.40;;;12.90;99.90;;;;;;5062063;28;20111;-70
2023/12/25 13:32:22;;;;;;;4.57;1.30;;;12.90;99.90;;;;;;5063265;28;20032;-70
2023/12/25 13:34:48;;;;;;;10.23;2.38;;;12.90;99.90;;;;;;5064728;28;20085;-70
2023/12/25 13:37:14;;;;;;;5.72;1.10;;;12.80;99.90;;;;;;5062067;28;20502;-71
2023/12/25 13:39:41;;;;;;;10.80;1.45;;;12.80;99.90;;;;;;5067755;28;20070;-70
2023/12/25 13:42:08;;;;;;;8.23;1.45;;;12.70;99.90;;;;;;5063442;28;20032;-70
2023/12/25 13:44:33;;;;;;;10.93;1.50;;;12.70;99.90;;;;;;5063114;28;20632;-70
2023/12/25 13:47:01;;;;;;;15.60;1.38;;;12.60;99.90;;;;;;5064074;28;20087;-71
2023/12/25 13:49:29;;;;;;;4.97;0.95;;;12.60;99.90;;;;;;5065614;28;20196;-70
2023/12/25 13:51:55;;;;;;;7.13;1.40;;;12.60;99.90;;;;;;5063767;28;20028;-70
2023/12/25 13:54:23;;;;;;;8.85;1.10;;;12.60;99.90;;;;;;5065311;28;20035;-70